Nearby METAR Reports

EGNX - East Midlands, United Kingdom
Distance: S 18mi, 28km
Updated: 19/08/2018 15:50
Mostly cloudy
Mostly cloudy
 Wind from WSW
Wind: WSW 13 mph , 20 km/h
Temperature: 21°C
Dew Point: 16°C
Humidity: 73%
Barometer: 1016 hPa
Clouds: Mostly cloudy
Visibility: 6 miles , 10 km
Cloud details: Mostly cloudy 823 m
2018/08/19 14:50 EGNX 191450Z 24011KT 9999 BKN027 21/16 Q1016
EGCN - Doncaster Sheffi, United Kingdom
Distance: NNE 31mi, 50km
Updated: 19/08/2018 16:20
Mostly cloudy
Mostly cloudy
 Wind from W
Wind: W 21 mph , 33 km/h
Temperature: 22°C
Dew Point: 15°C
Humidity: 65%
Barometer: 1016 hPa
Clouds: Mostly cloudy
Visibility: 6 miles , 10 km
Cloud details: Mostly cloudy 914 m
2018/08/19 15:20 EGCN 191520Z 27018KT 250V010 9999 BKN030 22/15 Q1016
EGYE - Barkston Heath R, United Kingdom
Distance: ESE 31mi, 50km
Updated: 17/08/2018 15:50
NOT Current
Mostly cloudy
Mostly cloudy
 Wind from SW
Wind: SW 17 mph , 28 km/h
Barometer: 1018 hPa
Clouds: Mostly cloudy
Visibility: 6 miles , 10 km
Cloud details: Partly cloudy 1097 m
Mostly cloudy 2438 m
2018/08/17 14:50 EGYE 171450Z 23015KT 9999 SCT036 BKN080 ///// Q1018 BLU
 
EGXW - Waddington Raf, United Kingdom
Distance: ENE 33mi, 53km
Updated: 19/08/2018 15:50
Mostly cloudy
Mostly cloudy
 Wind from W
Wind: W 14 mph , 22 km/h
Temperature: 21°C
Dew Point: 15°C
Humidity: 69%
Barometer: 1015 hPa
Clouds: Mostly cloudy
Visibility: 6 miles , 10 km
Cloud details: Mostly cloudy 762 m
2018/08/19 14:50 EGXW 191450Z 27012KT 9999 BKN025 21/15 Q1015 BLU
EGYD - Cranwell Raf, United Kingdom
Distance: E 33mi, 53km
Updated: 19/08/2018 15:50
Mostly cloudy
Mostly cloudy
 Wind from W
Wind: W 22 mph , 35 km/h
Temperature: 21°C
Dew Point: 16°C
Humidity: 73%
Barometer: 1016 hPa
Clouds: Mostly cloudy
Visibility: 6 miles , 10 km
Cloud details: Mostly cloudy 792 m
Mostly cloudy 1128 m
2018/08/19 14:50 EGYD 191450Z AUTO 26019KT 9999 // BKN026/// BKN037/// 21/16 Q1016
EGXP - Scampton Raf, United Kingdom
Distance: ENE 35mi, 56km
Updated: 19/08/2018 15:50
Overcast
Overcast
 Wind from W
Wind: W 20 mph , 31 km/h
Temperature: 22°C
Dew Point: 15°C
Humidity: 65%
Barometer: 1015 hPa
Clouds: Overcast
Visibility: 6 miles , 10 km
Cloud details: Few Clouds 762 m
Overcast 884 m
2018/08/19 14:50 EGXP 191450Z AUTO 27017KT 9999 // FEW025/// OVC029/// 22/15 Q1015
 
EGCC - Manchester Intl, United Kingdom
Distance: WNW 45mi, 72km
Updated: 19/08/2018 15:50
Overcast
Overcast
 Wind from WNW
Wind: WNW 13 mph , 20 km/h
Temperature: 19°C
Dew Point: 16°C
Humidity: 83%
Barometer: 1017 hPa
Clouds: Overcast
Visibility: 6 miles , 10 km
Cloud details: Mostly cloudy 457 m
Mostly cloudy 884 m
Overcast 1036 m
2018/08/19 14:50 EGCC 191450Z AUTO 29011KT 9999 BKN015 BKN029 OVC034 19/16 Q1017 NOSIG
EGBB - Birmingham Airpo, United Kingdom
Distance: SSW 46mi, 74km
Updated: 19/08/2018 16:20
Mostly cloudy
Mostly cloudy
 Wind from W
Wind: W 10 mph , 17 km/h
Temperature: 23°C
Dew Point: 16°C
Humidity: 65%
Barometer: 1017 hPa
Clouds: Mostly cloudy
Visibility: 6 miles , 10 km
Cloud details: Mostly cloudy 884 m
2018/08/19 15:20 EGBB 191520Z 28009KT 9999 BKN029 23/16 Q1017
EGXC - Coningsby Raf, United Kingdom
Distance: E 47mi, 75km
Updated: 19/08/2018 15:42
Mostly cloudy
Mostly cloudy
 Wind from W
Wind: W 17 mph , 28 km/h
Temperature: 22°C
Dew Point: 15°C
Humidity: 65%
Barometer: 1015 hPa
Clouds: Mostly cloudy
Visibility: 6 miles , 10 km
Cloud details: Mostly cloudy 853 m
2018/08/19 14:42 EGXC 191442Z 27015KT 9999 BKN028 22/15 Q1015 BLU
 
EGXT - Wittering Raf, United Kingdom
Distance: SE 47mi, 75km
Updated: 19/08/2018 15:50
Mostly cloudy
Mostly cloudy
 Wind from W
Wind: W 21 mph , 33 km/h
Temperature: 23°C
Dew Point: 14°C
Humidity: 57%
Barometer: 1016 hPa
Clouds: Mostly cloudy
Visibility: 6 miles , 10 km
Cloud details: Mostly cloudy 1006 m
2018/08/19 14:50 EGXT 191450Z AUTO 28018KT 9999 BKN033/// 23/14 Q1016
EGNJ - Humberside, United Kingdom
Distance: NE 52mi, 83km
Updated: 19/08/2018 16:20
Mostly cloudy
Mostly cloudy
 Wind from W
Wind: W 16 mph , 26 km/h
Temperature: 22°C
Dew Point: 15°C
Humidity: 65%
Barometer: 1015 hPa
Clouds: Mostly cloudy
Visibility: 6 miles , 10 km
Cloud details: Mostly cloudy 853 m
2018/08/19 15:20 EGNJ 191520Z 27014KT 9999 BKN028 22/15 Q1015
EGWC - Cosford Raf, United Kingdom
Distance: SW 52mi, 83km
Updated: 17/08/2018 15:50
NOT Current
Light rain, Mostly cloudy
Light rain, Mostly cloudy
 Wind from SW
Wind: SW 12 mph , 19 km/h
Temperature: 17°C
Dew Point: 10°C
Humidity: 64%
Barometer: 1019 hPa
Summary: Light rain
Clouds: Mostly cloudy
Visibility: 6 miles , 10 km
Cloud details: Mostly cloudy 1158 m
2018/08/17 14:50 EGWC 171450Z 23010KT 9999 -RA BKN038 17/10 Q1019 BLU
 
EGNM - Leeds And Bradfo, United Kingdom
Distance: NNW 57mi, 91km
Updated: 19/08/2018 16:20
Light rain, Drizzle, Mostly cloudy
Light rain, Drizzle, Mostly cloudy
 Wind from W
Wind: W 17 mph , 28 km/h
Temperature: 17°C
Dew Point: 15°C
Humidity: 88%
Barometer: 1016 hPa
Summary: Light rain, Drizzle
Clouds: Mostly cloudy
Visibility: 6 miles , 10 km
Cloud details: Partly cloudy 244 m
Mostly cloudy 305 m
2018/08/19 15:20 EGNM 191520Z 28015KT 9999 8000NW -RADZ SCT008 BKN010 17/15 Q1016
EGOS - Shawbury Raf, United Kingdom
Distance: WSW 60mi, 97km
Updated: 19/08/2018 15:50
Partly cloudy
Partly cloudy
 Wind from W
Wind: W 17 mph , 28 km/h
Temperature: 21°C
Dew Point: 15°C
Humidity: 69%
Barometer: 1017 hPa
Clouds: Partly cloudy
Visibility: 6 miles , 10 km
Cloud details: Few Clouds 640 m
Partly cloudy 823 m
2018/08/19 14:50 EGOS 191450Z AUTO 26015KT 9999 FEW021/// SCT027/// 21/15 Q1017
EGYH - Holbeach (aut), United Kingdom
Distance: ESE 62mi, 99km
Updated: 17/08/2018 10:50
NOT Current
Partly cloudy
Partly cloudy
 Wind from WSW
Wind: WSW 12 mph , 19 km/h
Temperature: 19°C
Dew Point: 12°C
Humidity: 64%
Barometer: 1018 hPa
Clouds: Partly cloudy
Visibility: 6 miles , 10 km
Cloud details: Partly cloudy 762 m
2018/08/17 09:50 EGYH 170950Z 24010KT 9999 SCT025 19/12 Q1018 BLU
 
EGXV - Leconfield (aut), United Kingdom
Distance: NNE 65mi, 105km
Updated: 19/08/2018 15:50
Partly cloudy
Partly cloudy
 Wind from W
Wind: W 15 mph , 24 km/h
Temperature: 21°C
Dew Point: 16°C
Humidity: 73%
Barometer: 1014 hPa
Clouds: Partly cloudy
Visibility: 6 miles , 10 km
Cloud details: Mostly cloudy 884 m
Partly cloudy 1829 m
2018/08/19 14:50 EGXV 191450Z AUTO 28013KT 9999 BKN029/// SCT060/// 21/16 Q1014
EGXS - Donna Nook Raf, United Kingdom
Distance: ENE 66mi, 106km
Updated: 19/08/2018 15:50
Mostly cloudy
Mostly cloudy
 Wind from WSW
Wind: WSW 13 mph , 20 km/h
Temperature: 23°C
Dew Point: 15°C
Humidity: 61%
Barometer: 1014 hPa
Clouds: Mostly cloudy
Visibility: 6 miles , 10 km
Cloud details: Mostly cloudy 975 m
2018/08/19 14:50 EGXS 191450Z AUTO 25011KT 9999 // BKN032/// 23/15 Q1014
EGGP - Liverpool Airpor, United Kingdom
Distance: WNW 67mi, 107km
Updated: 19/08/2018 16:20
Light rain, Mostly cloudy
Light rain, Mostly cloudy
 Wind from WNW
Wind: WNW 18 mph , 30 km/h
Temperature: 18°C
Dew Point: 16°C
Humidity: 88%
Barometer: 1017 hPa
Summary: Light rain
Clouds: Mostly cloudy
Visibility: 6 miles , 10 km
Cloud details: Partly cloudy 183 m
Mostly cloudy 335 m
2018/08/19 15:20 EGGP 191520Z 29016KT 9999 5000W -RA SCT006 BKN011 18/16 Q1017
 
EGXU - Linton-On-Ouse R, United Kingdom
Distance: N 68mi, 109km
Updated: 19/08/2018 15:50
Overcast
Overcast
 Wind from W
Wind: W 15 mph , 24 km/h
Temperature: 21°C
Dew Point: 15°C
Humidity: 69%
Barometer: 1014 hPa
Clouds: Overcast
Visibility: 6 miles , 10 km
Cloud details: Overcast 640 m
2018/08/19 14:50 EGXU 191450Z AUTO 26013KT 9999 // OVC021/// 21/15 Q1014
EGNR - Hawarden (aut), United Kingdom
Distance: W 70mi, 112km
Updated: 19/08/2018 16:20
Mostly cloudy
Mostly cloudy
 Wind from NW
Wind: NW 13 mph , 20 km/h
Temperature: 22°C
Dew Point: 15°C
Humidity: 65%
Barometer: 1017 hPa
Clouds: Mostly cloudy
Visibility: 6 miles , 10 km
Cloud details: Few Clouds 732 m
Mostly cloudy 1006 m
2018/08/19 15:20 EGNR 191520Z 32011KT 9999 FEW024 BKN033 22/15 Q1017